METAR Data
IDs: Format: Raw Decoded Include TAF

Data at: 0220 UTC 12 May 2021

KEVV 120154Z 02007KT 10SM OVC100 13/02 A3029 RMK AO2 SLP256 T01330017
KEVV 120054Z 02008KT 10SM OVC110 13/01 A3026 RMK AO2 SLP247 T01330011
KEVV 112354Z 02011KT 10SM OVC110 14/01 A3024 RMK AO2 SLP239 T01390011 10183 20139 53010
KEVV 112254Z 01011KT 10SM OVC110 16/03 A3023 RMK AO2 SLP236 T01560028
KEVV 112154Z 04011KT 10SM BKN110 17/03 A3021 RMK AO2 SLP230 T01670028
KEVV 112054Z 04012KT 10SM OVC110 17/05 A3021 RMK AO2 SLP229 T01720050 58011
KEVV 111954Z 03009KT 10SM SCT048 BKN120 17/07 A3023 RMK AO2 SLP235 T01720067
KEVV 111854Z 02010KT 10SM BKN060 18/07 A3023 RMK AO2 SLP236 T01830072
KEVV 111754Z 04008KT 10SM SCT044 17/07 A3024 RMK AO2 SLP240 T01720072 10178 20089 50000
KEVV 111654Z 02009KT 10SM SCT045 17/07 A3026 RMK AO2 SLP246 T01670067 $
KEVV 111554Z 35010G15KT 10SM CLR 17/08 A3026 RMK AO2 SLP245 T01670078 $
KEVV 111454Z 06007KT 10SM CLR 16/08 A3024 RMK AO2 SLP240 T01560078 51005 $
KEVV 111354Z 07008KT 020V090 10SM CLR 13/07 A3024 RMK AO2 SLP240 T01330072 $
KEVV 111254Z 05007KT 10SM CLR 12/07 A3023 RMK AO2 SLP237 T01170067 $
KEVV 111154Z 03006KT 10SM CLR 09/06 A3022 RMK AO2 SLP234 T00890061 10100 20056 53014 $
KEVV 111054Z 00000KT 10SM CLR 06/05 A3020 RMK AO2 SLP227 T00610050 $
KEVV 110954Z AUTO 36004KT 10SM CLR 08/04 A3019 RMK AO2 SLP224 T00830044 $
KEVV 110854Z AUTO 01003KT 10SM CLR 06/04 A3018 RMK AO2 SLP221 T00610044 53006 $
KEVV 110754Z AUTO 21003KT 10SM CLR 07/05 A3017 RMK AO2 SLP216 T00670050 $
KEVV 110654Z AUTO 02003KT 10SM CLR 09/04 A3016 RMK AO2 SLP211 T00940044 $
KEVV 110554Z AUTO 02003KT 10SM CLR 09/05 A3016 RMK AO2 SLP214 T00940050 10150 20094 401720044 51006 $
KEVV 110454Z AUTO 36004KT 10SM CLR 11/06 A3016 RMK AO2 SLP213 T01110056 $
KEVV 110354Z AUTO 35004KT 10SM CLR 12/06 A3015 RMK AO2 SLP210 T01220056 $
KEVV 110254Z 35004KT 10SM CLR 13/06 A3015 RMK AO2 SLP208 T01330056 53005 $
KEVV 110154Z 02003KT 10SM CLR 13/07 A3013 RMK AO2 SLP203 T01330067 $
KEVV 110054Z 33003KT 10SM SCT120 14/06 A3014 RMK AO2 SLP205 T01390061 $
KEVV 102354Z 33003KT 10SM CLR 15/06 A3013 RMK AO2 SLP204 T01500056 10172 20144 53004 $
KEVV 102254Z 36005KT 10SM BKN110 16/06 A3012 RMK AO2 SLP199 T01610056 $
KEVV 102154Z 03008KT 10SM BKN100 15/04 A3011 RMK AO2 SLP198 T01500039 $
KEVV 102054Z 02007KT 10SM SCT120 16/04 A3012 RMK AO2 PRESFR SLP199 T01560039 58009 $
KEVV 101954Z 01006KT 10SM BKN110 16/04 A3014 RMK AO2 SLP208 T01610039 $
KEVV 101854Z 36009KT 10SM CLR 17/04 A3013 RMK AO2 SLP203 T01720039 $
KEVV 101754Z 06010KT 10SM CLR 17/04 A3014 RMK AO2 SLP207 T01670039 10167 20067 55002 $
KEVV 101654Z 07008KT 10SM FEW042 15/04 A3014 RMK AO2 SLP206 T01500044 $
KEVV 101554Z 05008KT 10SM FEW031 13/05 A3014 RMK AO2 SLP208 T01330050 $
KEVV 101454Z 04007KT 010V070 10SM FEW030 12/04 A3015 RMK AO2 SLP210 T01220044 51011 $